^^

Nearby METAR Reports

 

EGHH - Bournemouth Airp, United Kingdom
Distance from station: S 10mi, 17km
Updated: 17/10/2019 17:20
Mostly cloudy
Mostly cloudy
 Wind from SW
Wind: SW 15 mph , 24 km/h
Temperature: 14°C
Dew Point: 10°C
Humidity: 77%
Barometer: 1003 hPa
Clouds: Mostly cloudy
Visibility: 6 miles , 10 km
Cloud details: Few Clouds 518 m
Mostly cloudy 1463 m
2019/10/17 16:20 EGHH 171620Z 22013KT 9999 FEW017 BKN048CB 14/10 Q1003
EGDM - Boscombe Down, United Kingdom
Distance from station: N 16mi, 26km
Updated: 17/10/2019 17:20
Light rain, Showers, Partly cloudy
Light rain, Showers, Partly cloudy
 Wind from SSW
Wind: SSW 12 mph , 19 km/h
Temperature: 13°C
Dew Point: 10°C
Humidity: 82%
Barometer: 1003 hPa
Summary: Light rain, Showers
Clouds: Partly cloudy
Visibility: 6 miles , 10 km
Cloud details: Partly cloudy 762 m
Partly cloudy 914 m
2019/10/17 16:20 EGDM 171620Z 20010KT 9999 -SHRA SCT025 SCT030 13/10 Q1003 TEMPO 7000 SHRA SCT020 RMK BLU TEMPO WHT
 
EGVP - Middle Wallop, United Kingdom
Distance from station: NE 17mi, 27km
Updated: 17/10/2019 16:50
Few Clouds
Few Clouds
 Wind from SSW
Wind: SSW 13 mph , 20 km/h
Temperature: 14°C
Dew Point: 10°C
Humidity: 77%
Barometer: 1003 hPa
Clouds: Few Clouds
Visibility: 6 miles , 10 km
Cloud details: Few Clouds 610 m
2019/10/17 15:50 EGVP 171550Z 21011KT 9999 FEW020 14/10 Q1003 RMK BLU
EGHI - Southampton Wx C, United Kingdom
Distance from station: E 19mi, 31km
Updated: 17/10/2019 17:20
Light rain, Showers, Few clouds
Light rain, Showers, Few clouds
 Wind from S
Wind: S 10 mph , 17 km/h
Temperature: 14°C
Dew Point: 10°C
Humidity: 77%
Barometer: 1004 hPa
Summary: Light rain, Showers
Clouds: Few Clouds
Visibility: 6 miles , 10 km
Cloud details: Few Clouds 762 m
Few Clouds 914 m
2019/10/17 16:20 EGHI 171620Z 18009KT 140V220 9999 -SHRA FEW025 FEW030CB 14/10 Q1004
 
EGDY - Yeovilton (navy), United Kingdom
Distance from station: W 36mi, 58km
Updated: 17/10/2019 16:50
Mostly cloudy
Mostly cloudy
 Wind from SSW
Wind: SSW 17 mph , 28 km/h
Temperature: 14°C
Dew Point: 10°C
Humidity: 77%
Barometer: 1002 hPa
Clouds: Mostly cloudy
Visibility: 6 miles , 10 km
Cloud details: Few Clouds 762 m
Mostly cloudy 914 m
2019/10/17 15:50 EGDY 171550Z 20015KT 9999 FEW025CB BKN030 14/10 Q1002 TEMPO 4000 -SHRA SCT010 RMK BLU TEMPO GRN
EGUO - Colerne Raf, United Kingdom
Distance from station: NNW 41mi, 66km
Updated: 14/02/2019 22:50
NOT Current
Clear
Clear
 Wind from ENE
Wind: ENE 1 mph , 2 km/h
Temperature: 1°C
Dew Point: 0°C
Humidity: 93%
Barometer: 1029 hPa
Summary: Clear
Visibility: greater than 7 miles , 10 km
2019/02/14 22:50 EGUO 142250Z 06001KT CAVOK 01/00 Q1029 BLU NOSIG
 
EGVO - Odiham Raf, United Kingdom
Distance from station: ENE 42mi, 68km
Updated: 17/10/2019 17:21
Few Clouds
Few Clouds
 Wind from S
Wind: S 14 mph , 22 km/h
Temperature: 12°C
Dew Point: 10°C
Humidity: 88%
Barometer: 1003 hPa
Clouds: Few Clouds
Visibility: 6 miles , 10 km
Cloud details: Few Clouds 610 m
2019/10/17 16:21 EGVO 171621Z 18012KT 9999 FEW020CB 12/10 Q1003 TEMPO 7000 -SHRA SCT022 RMK BLU TEMPO WHT
EGGD - Bristol/Lulsgate, United Kingdom
Distance from station: NW 50mi, 81km
Updated: 17/10/2019 17:20
Nearby showers, Partly cloudy
Nearby showers, Partly cloudy
 Wind from SSW
Wind: SSW 8 mph , 13 km/h
Temperature: 12°C
Dew Point: 8°C
Humidity: 77%
Barometer: 1001 hPa
Summary: Nearby Showers
Clouds: Partly cloudy
Visibility: 6 miles , 10 km
Cloud details: Partly cloudy 884 m
Partly cloudy 1463 m
2019/10/17 16:20 EGGD 171620Z 21007KT 180V240 9999 VCSH SCT029CB SCT048 12/08 Q1001